Slide Mountain Weather observations

Data are for 10 minute period ending at time listed.
 Day   Time   Solar   Ave.   Ave.  Ave.  Vector  Max.    Baro.  
  of    of     Rad.   Air    Rel.  Wind   Wind   Wind   Press.  
Year   Day            Temp.  Hum.  Speed  Dir.   Gust           
2014   (PST)  Kw/m2    F      %     mph   deg.    mph     mb.   
-----------------------------------------------------------------
 261   16:30   0.34   51.5    59   26.5   247     38.7    712.5 
 261   16:40   0.33   51.2    58   26.1   246     37.0    712.5 
 261   16:50   0.28   50.8    59   24.9   250     34.7    712.5 
 261   17:00   0.23   50.4    58   24.2   246     36.3    712.6 
 261   17:10   0.20   49.8    60   22.8   250     33.1    712.7 
 261   17:20   0.18   49.1    59   23.7   254     31.9    712.9 
 261   17:30   0.14   48.6    59   26.5   254     34.2    712.9 
 261   17:40   0.07   47.6    62   21.7   253     30.2    713.0 
 261   17:50   0.04   46.8    69   19.7   262     26.2    713.2 
 261   18:00   0.02   46.1    70   18.0   253     25.5    713.3 
 261   18:10   0.01   45.5    72   12.8   263     19.6    713.4 
 261   18:20   0.00   45.0    73   11.6   269     18.1    713.5 
 261   18:30   0.00   44.7    74    7.9   267     13.6    713.6 
 261   18:40   0.00   44.4    74    8.6   288     13.9    713.7 
 261   18:50   0.00   44.1    75    9.6   284     14.6    713.8 
 261   19:00   0.00   43.9    76   13.5   272     17.5    713.9 
 261   19:10   0.00   43.7    78   13.7   267     19.2    713.9 
 261   19:20   0.00   43.5    78   11.1   265     15.8    714.1 
 261   19:30   0.00   43.6    79    6.3   263      9.8    714.2 
 261   19:40   0.00   43.5    80    6.7   278     10.1    714.3 
 261   19:50   0.00   43.5    79    6.6   275     11.8    714.4 
 261   20:00   0.00   43.9    78    4.8   272      6.7    714.3 
 261   20:10   0.00   43.9    78    6.1   271      8.3    714.2 
 261   20:20   0.00   44.0    77    3.5   286      7.4    714.4 
 261   20:30   0.00   44.8    73    0.4   284      2.8    714.5 
 261   20:40   0.00   45.0    71    2.0   268      5.5    714.6 
 261   20:50   0.00   45.0    68    4.8   268      8.0    714.6 
 261   21:00   0.00   45.4    63    1.6   274      4.3    714.7 
 261   21:10   0.00   45.5    62    0.6   290      3.6    714.6 
 261   21:20   0.00   45.8    60    0.7   285      3.4    714.7 
 261   21:30   0.00   46.0    60    0.0   249      0.3    714.7 
 261   21:40   0.00   45.9    59    1.0   265      3.4    714.7 
 261   21:50   0.00   45.7    61    3.7   257      4.7    714.8 
 261   22:00   0.00   45.7    61    2.3   247      3.7    714.8 
 261   22:10   0.00   45.6    62    0.9   256      3.2    714.7 
 261   22:20   0.00   45.5    64    0.0   263      0.1    714.8 
 261   22:30   0.00   45.2    64    0.1   267      1.1    714.9 
 261   22:40   0.00   45.3    64    0.2   345      1.7    714.9 
 261   22:50   0.00   45.3    64    1.0   346      2.2    714.9 
 261   23:00   0.00   45.3    63    0.2   327      2.2    714.9 
 261   23:10   0.00   46.4    59    0.6    20      3.6    714.9 
 261   23:20   0.00   46.4    59    3.0    17      5.5    714.9 
 261   23:30   0.00   45.7    64    6.8    13      9.6    714.9 
 261   23:40   0.00   45.5    65    8.3     8     11.1    714.8 
 261   23:50   0.00   45.3    65   10.7     9     14.5    714.8 
 262    0:00   0.00   45.6    65   12.0    26     15.6    714.8 
 262    0:10   0.00   44.4    70   15.2    18     20.3    714.8 
 262    0:20   0.00   43.6    72   14.9     7     18.5    714.8 
 262    0:30   0.00   43.6    71   15.8     4     19.6    714.8 
 262    0:40   0.00   44.0    70   14.5    13     19.8    714.8 
 262    0:50   0.00   44.3    67   16.8    36     23.4    714.9 
 262    1:00   0.00   44.1    67   16.8    40     23.3    714.9 
 262    1:10   0.00   43.3    72   17.3    37     23.7    714.8 
 262    1:20   0.00   42.9    72   18.0    40     24.3    714.8 
 262    1:30   0.00   42.8    70   18.8    40     25.6    714.8 
 262    1:40   0.00   42.6    69   21.1    39     27.0    714.8 
 262    1:50   0.00   43.0    67   22.1    42     29.2    714.8 
 262    2:00   0.00   43.3    64   23.7    44     31.0    714.8 
 262    2:10   0.00   43.5    62   24.5    41     30.7    714.9 
 262    2:20   0.00   43.8    59   21.2    42     28.3    714.9 
 262    2:30   0.00   44.1    59   20.3    46     26.5    714.9 
 262    2:40   0.00   44.0    59   21.8    47     30.3    714.8 
 262    2:50   0.00   44.0    60   23.9    49     30.9    714.8 
 262    3:00   0.00   43.5    62   24.1    47     31.2    714.8 
 262    3:10   0.00   43.5    64   26.7    50     35.2    714.7 
 262    3:20   0.00   43.4    64   26.5    54     33.7    714.7 
 262    3:30   0.00   43.5    65   26.3    51     34.0    714.7 
 262    3:40   0.00   43.5    66   27.4    47     35.6    714.7 
 262    3:50   0.00   43.2    68   25.3    41     31.1    714.7 
 262    4:00   0.00   44.0    68   28.2    47     36.1    714.7 
 262    4:10   0.00   44.3    66   28.7    53     35.2    714.7 
 262    4:20   0.00   44.1    68   25.7    51     37.1    714.8 
 262    4:30   0.00   43.5    70   27.6    49     42.2    714.9 
 262    4:40   0.00   43.6    69   26.9    50     36.7    715.0 
 262    4:50   0.00   43.7    69   25.7    48     37.4    715.1 
 262    5:00   0.00   43.9    67   27.4    53     35.6    715.1 
 262    5:10   0.00   44.0    67   29.3    54     38.1    715.2 
 262    5:20   0.00   43.8    67   28.2    54     36.9    715.2 
 262    5:30   0.00   43.8    67   27.2    55     34.0    715.3 
 262    5:40   0.00   44.1    66   26.2    53     33.8    715.4 
 262    5:50   0.00   44.4    63   27.0    55     37.3    715.5 
 262    6:00   0.01   44.7    61   25.5    53     32.9    715.6 
 262    6:10   0.01   44.9    60   25.0    54     33.1    715.6 
 262    6:20   0.01   45.0    59   25.2    58     32.9    715.7 
 262    6:30   0.01   44.8    60   23.1    56     31.1    715.8 
 262    6:40   0.02   44.9    62   24.4    58     29.8    715.8 
 262    6:50   0.03   45.3    63   24.8    68     34.5    715.8 
 262    7:00   0.04   45.7    66   24.8    74     33.1    715.8 
 262    7:10   0.05   46.0    65   26.5    72     40.2    715.8 
 262    7:20   0.07   46.3    64   29.6    73     41.6    715.8 
 262    7:30   0.21   46.6    64   23.9    74     35.4    715.9 
 262    7:40   0.31   48.1    62   21.3    79     28.4    716.0 
 262    7:50   0.29   48.8    60   24.1    87     36.2    716.1 
 262    8:00   0.28   48.5    61   27.1    82     37.8    716.1 
 262    8:10   0.32   49.1    60   24.5    84     31.8    716.2 
 262    8:20   0.35   49.4    60   23.2    84     34.0    716.3 
 262    8:30   0.37   49.4    61   18.2    79     24.8    716.5 
 262    8:40   0.40   50.2    60   16.2    72     23.5    716.5 
 262    8:50   0.42   50.1    61   15.4    77     20.5    716.6 
 262    9:00   0.44   50.7    60   15.7    73     24.7    716.7 
 262    9:10   0.46   50.6    58   17.5    69     24.3    716.8 
 262    9:20   0.49   50.7    59   16.6    76     24.0    716.8 
 262    9:30   0.53   51.2    57   17.2    74     24.1    716.8 
 262    9:40   0.53   51.0    57   18.1    66     28.7    716.8 
 262    9:50   0.55   51.0    58   17.6    70     26.1    716.9 
 262   10:00   0.57   51.1    59   15.8    72     27.2    716.9 
 262   10:10   0.59   51.0    59   18.0    69     30.0    717.0 
 262   10:20   0.61   51.7    59   15.4    80     24.9    717.0 
 262   10:30   0.62   52.2    60   16.2    88     29.3    717.0 
 262   10:40   0.64   51.7    59   15.9    71     23.8    717.1 
 262   10:50   0.65   52.1    58   14.4    68     23.5    717.0 
 262   11:00   0.67   52.3    58   14.8    76     26.9    717.0 
 262   11:10   0.68   53.4    57   13.3    86     24.5    717.1 
 262   11:20   0.68   52.9    56   12.9    69     20.7    717.0 
 262   11:30   0.69   53.1    56   12.8    67     21.8    717.1 
 262   11:40   0.69   53.4    55   12.9    82     22.4    717.0 
 262   11:50   0.69   53.2    56   14.8    84     29.0    717.0 
 262   12:00   0.69   53.4    56   15.0    76     23.2    717.0 
 262   12:10   0.71   52.9    56   17.0    77     36.4    717.0 
 262   12:20   0.69   52.7    56   20.2    86     32.8    716.9 
 262   12:30   0.69   53.0    55   18.4    91     37.4    716.8 
 262   12:40   0.69   53.3    55   20.5    82     31.2    716.7 
 262   12:50   0.68   52.8    55   23.1    83     31.1    716.7 
 262   13:00   0.67   53.3    54   24.0    82     36.5    716.6 
 262   13:10   0.67   53.0    54   20.8    83     32.4    716.7 
 262   13:20   0.65   53.4    53   22.1    79     30.9    716.6 
 262   13:30   0.64   53.4    52   17.5    68     31.4    716.7 
 262   13:40   0.63   53.8    52   21.0    80     28.1    716.6 
 262   13:50   0.62   54.2    51   20.6    73     29.0    716.6 
 262   14:00   0.59   54.5    51   20.1    78     33.0    716.6 
 262   14:10   0.58   54.5    51   19.0    71     29.2    716.5 
 262   14:20   0.58   54.3    51   19.2    80     30.5    716.5 
 262   14:30   0.56   54.4    51   19.7    72     27.4    716.5 
 262   14:40   0.53   54.6    50   20.9    72     33.3    716.5 
 262   14:50   0.51   54.7    50   18.6    74     28.1    716.5 
 262   15:00   0.49   55.3    49   19.6    82     30.4    716.5 
 262   15:10   0.42   54.6    50   20.9    74     33.2    716.5 
 262   15:20   0.41   55.4    49   18.1    78     30.6    716.4 
 262   15:30   0.24   54.3    46   27.1    93     37.6    716.4 
 262   15:40   0.39   54.4    46   25.8    97     39.1    716.4 
 262   15:50   0.37   54.4    45   25.1    92     37.0    716.4 
 262   16:00   0.35   54.2    46   21.9    92     28.4    716.5 
 262   16:10   0.31   54.3    47   20.8    79     27.8    716.5 
 262   16:20   0.27   54.3    45   19.7    82     30.6    716.5 

Return to Slide Mountain graphs page.


Western Regional Climate Center,wrcc@dri.edu